Airport View

Enter AWOS ICAO identifier for current METAR.

ex. KFNL

CYAZ 191900Z 30016G24KT 15SM FEW020 SCT070 SCT220 15/09 A3018 RMK SC2AC1CC1 ACSL SW SLP220

19 Jun 2019 19:50

Other Area AWOS: CWEB - CYQQ - CYBL - CWGT

TAF CYAZ 191738Z 1918/2001 29012G22KT P6SM FEW020 BECMG 1919/1921 29020KT RMK NXT FCST WILL BE ISSUED AT 201445Z